weather.gov     
National Weather Service

Terminal Aerodrome Forecast
NWS Homepage
This page is being discontinued on March 12, 2014.
The same data is available at this site. Please update your bookmarks.
Thank you, and we apologize for the inconvenience.
Please send an email to SR-SRH.Webmaster@noaa.gov with any concerns.


Current Version
Previous Version:    01  02  03  04  05  06  07  08  09  10  11  12  13  14  15  16  17  18  19  20  21  22  23  24  25  26  27  28  29  30  
   31  32  33  34  35  36  
[Printable]
547
FTUS43 KGRB 242300
TAFGRB
TAF
KGRB 242320Z 2500/2524 09014KT 6SM -RA BR SCT025 OVC050
      TEMPO 2500/2503 4SM -RA BR OVC025
     FM250300 10011KT 5SM -RA BR SCT017 OVC035
      TEMPO 2503/2506 2SM -RA BR OVC017
     FM250900 16006KT 5SM BR SCT008 OVC015
     FM251100 VRB03KT 2SM BR BKN008 OVC015
     FM251300 28008KT P6SM BKN025 BKN040
     FM251800 26015G26KT P6SM SCT035 BKN050 PROB30 2518/2524 -SHRA
      BKN025=


U.S. Dept. of Commerce
NOAA National Weather Service
1325 East West Highway
Silver Spring, MD 20910
E-mail: w-nws.webmaster@noaa.gov
Page last modified: May 16, 2007
NATIONAL WEATHER SERVICE: for Safety, for Work, for Fun - FOR LIFE